Data for 06/29/2018

Time Sea-Level Adjusted Pressure Absolute Pressure Temperature Relative Humidity Dew Point   
(mb) (inHg) (mb) (inHg) (C) (F) (%) (C) (F)
00:05 1017 30.03 846 24.98 10.8 51.5 87 8.8 47.9
00:10 1017 30.03 846 24.98 10.7 51.3 88 8.8 47.8
00:15 1017 30.03 846 24.98 10.6 51.1 88 8.7 47.6
00:20 1017 30.03 846 24.98 10.5 50.9 88 8.6 47.5
00:25 1017 30.03 846 24.98 10.4 50.8 88 8.5 47.3
00:30 1016 30 846 24.98 10.3 50.6 88 8.5 47.3
00:35 1016 30 845 24.95 10.2 50.4 89 8.4 47.1
00:40 1016 30 845 24.95 10.1 50.1 89 8.3 46.9
00:45 1016 30 845 24.95 10 50 88 8.2 46.7
00:50 1016 30 845 24.95 10 49.9 89 8.2 46.7
00:55 1016 30 845 24.95 10 49.9 88 8.1 46.7
01:00 1016 30 845 24.95 10 50.1 88 8.2 46.8
01:05 1016 30 845 24.95 10.1 50.2 88 8.3 46.9
01:10 1016 30 845 24.95 10.1 50.1 88 8.2 46.7
01:15 1016 30 845 24.95 10.1 50.2 88 8.2 46.7
01:20 1016 30 845 24.95 10.1 50.3 87 8.1 46.6
01:25 1016 30 845 24.95 10.2 50.3 87 8.1 46.5
01:30 1016 30 845 24.95 10.3 50.5 86 8 46.4
01:35 1016 30 845 24.95 10.3 50.5 86 8.1 46.5
01:40 1016 30 845 24.95 10.3 50.6 87 8.2 46.7
01:45 1016 30 845 24.95 10.2 50.3 88 8.3 46.9
01:50 1016 30 845 24.95 10 50 89 8.2 46.8
01:55 1016 30 845 24.95 10 50 88 8.2 46.7
02:00 1016 30 845 24.95 10 50.1 89 8.2 46.8
02:05 1016 30 845 24.95 10.1 50.1 88 8.2 46.8
02:10 1016 30 845 24.95 10.1 50.1 88 8.2 46.8
02:15 1016 30 845 24.95 10 49.9 88 8.1 46.7
02:20 1015 29.97 845 24.95 9.9 49.9 89 8.1 46.7
02:25 1016 30 845 24.95 9.9 49.8 88 8 46.4
02:30 1016 30 845 24.95 9.8 49.6 87 7.7 45.9
02:35 1016 30 845 24.95 9.7 49.4 86 7.4 45.3
02:40 1016 30 845 24.95 9.7 49.4 86 7.4 45.4
02:45 1015 29.97 845 24.95 9.7 49.4 87 7.6 45.6
02:50 1015 29.97 845 24.95 9.6 49.3 87 7.5 45.5
02:55 1015 29.97 845 24.95 9.5 49.1 87 7.5 45.6
03:00 1016 30 845 24.95 9.5 49 88 7.6 45.6
03:05 1016 30 845 24.95 9.6 49.2 87 7.6 45.6
03:10 1016 30 845 24.95 9.6 49.2 86 7.4 45.4
03:15 1016 30 845 24.95 9.6 49.2 86 7.4 45.3
03:20 1016 30 845 24.95 9.6 49.3 86 7.3 45.2
03:25 1015 29.97 845 24.95 9.6 49.3 85 7.3 45.1
03:30 1016 30 845 24.95 9.8 49.6 83 7.1 44.8
03:35 1016 30 845 24.95 10.1 50.1 83 7.4 45.3
03:40 1016 30 845 24.95 10.1 50.1 83 7.3 45.1
03:45 1016 30 845 24.95 10.1 50.3 81 7.1 44.8
03:50 1016 30 845 24.95 10.2 50.3 83 7.5 45.5
03:55 1016 30 845 24.95 10.1 50.2 85 7.6 45.8
04:00 1016 30 845 24.95 9.8 49.6 87 7.8 46
04:05 1016 30 845 24.95 9.6 49.3 89 7.8 46
04:10 1016 30 845 24.95 9.5 49 89 7.7 45.9
04:15 1016 30 845 24.95 9.5 49 90 7.8 46.1
04:20 1016 30 845 24.95 9.4 49 90 7.8 46.1
04:25 1016 30 845 24.95 9.5 49 90 7.9 46.2
04:30 1016 30 845 24.95 9.4 49 90 7.8 46.1
04:35 1016 30 845 24.95 9.4 48.9 89 7.7 45.8
04:40 1016 30 845 24.95 9.4 48.8 89 7.6 45.8
04:45 1016 30 845 24.95 9.4 48.8 90 7.7 45.9
04:50 1016 30 845 24.95 9.4 48.8 89 7.7 45.9
04:55 1016 30 845 24.95 9.4 48.8 89 7.7 45.9
05:00 1016 30 845 24.95 9.3 48.8 88 7.5 45.4
05:05 1016 30 845 24.95 9.4 48.9 87 7.4 45.4
05:10 1016 30 845 24.95 9.5 49.2 87 7.5 45.5
05:15 1016 30 845 24.95 9.7 49.4 87 7.6 45.6
05:20 1016 30 845 24.95 9.8 49.6 87 7.7 45.9
05:25 1016 30 845 24.95 9.7 49.5 88 7.9 46.2
05:30 1016 30 846 24.98 9.7 49.5 88 7.9 46.2
05:35 1016 30 846 24.98 9.6 49.3 88 7.8 46
05:40 1016 30 846 24.98 9.5 49 88 7.6 45.7
05:45 1017 30.03 846 24.98 9.3 48.8 88 7.5 45.5
05:50 1017 30.03 846 24.98 9.4 48.9 88 7.6 45.7
05:55 1017 30.03 846 24.98 9.5 49.1 89 7.8 46
06:00 1017 30.03 846 24.98 9.6 49.3 89 7.8 46.1
06:05 1017 30.03 846 24.98 9.3 48.7 87 7.3 45.1
06:10 1017 30.03 846 24.98 8.9 48 85 6.5 43.7
06:15 1017 30.03 846 24.98 8.7 47.6 86 6.5 43.7
06:20 1017 30.03 846 24.98 8.6 47.4 87 6.5 43.8
06:25 1017 30.03 846 24.98 8.4 47.1 87 6.3 43.3
06:30 1017 30.03 846 24.98 8.3 46.9 87 6.3 43.3
06:35 1017 30.03 846 24.98 8.4 47 88 6.5 43.7
06:40 1017 30.03 846 24.98 8.4 47.2 87 6.4 43.6
06:45 1017 30.03 846 24.98 8.3 47 87 6.3 43.4
06:50 1017 30.03 846 24.98 8.3 47 87 6.4 43.4
06:55 1017 30.03 847 25.01 8.3 47 87 6.3 43.4
07:00 1017 30.03 847 25.01 8.2 46.8 88 6.4 43.5
07:05 1017 30.03 847 25.01 8.2 46.8 89 6.4 43.6
07:10 1017 30.03 847 25.01 8.2 46.8 89 6.6 43.8
07:15 1017 30.03 847 25.01 8.2 46.8 89 6.6 43.9
07:20 1018 30.06 847 25.01 8.2 46.7 90 6.6 43.9
07:25 1018 30.06 847 25.01 8.2 46.7 90 6.7 44
07:30 1018 30.06 847 25.01 8.2 46.7 90 6.7 44
07:35 1018 30.06 847 25.01 8.3 46.9 91 6.8 44.2
07:40 1018 30.06 847 25.01 8.3 47 91 6.9 44.4
07:45 1018 30.06 847 25.01 8.4 47.1 90 6.9 44.4
07:50 1018 30.06 847 25.01 8.4 47.1 90 6.9 44.5
07:55 1018 30.06 847 25.01 8.5 47.4 90 7 44.6
08:00 1018 30.06 847 25.01 8.6 47.4 91 7.1 44.8
08:05 1018 30.06 847 25.01 8.8 47.8 90 7.2 45
08:10 1018 30.06 847 25.01 8.9 48 90 7.3 45.2
08:15 1018 30.06 847 25.01 9.2 48.5 89 7.4 45.3
08:20 1018 30.06 847 25.01 9.4 49 86 7.3 45.1
08:25 1018 30.06 847 25.01 9.5 49.1 87 7.4 45.3
08:30 1018 30.06 847 25.01 9.5 49.1 86 7.3 45.1
08:35 1018 30.06 847 25.01 9.5 49.1 85 7.1 44.7
08:40 1018 30.06 847 25.01 9.6 49.3 85 7.2 44.9
08:45 1018 30.06 847 25.01 9.7 49.4 84 7.1 44.8
08:50 1018 30.06 847 25.01 9.7 49.4 83 7 44.6
08:55 1018 30.06 847 25.01 9.7 49.5 82 6.9 44.3
09:00 1018 30.06 847 25.01 9.7 49.5 83 6.9 44.5
09:05 1018 30.06 847 25.01 9.9 49.8 80 6.6 43.9
09:10 1018 30.06 847 25.01 10 50 80 6.8 44.2
09:15 1018 30.06 847 25.01 10.2 50.4 78 6.6 43.9
09:20 1018 30.06 847 25.01 10.5 51 79 7.1 44.7
09:25 1018 30.06 847 25.01 11.1 51.9 76 6.9 44.5
09:30 1018 30.06 847 25.01 11.2 52.1 77 7.4 45.2
09:35 1018 30.06 847 25.01 11.3 52.4 75 7.1 44.8
09:40 1018 30.06 848 25.04 11.4 52.6 74 6.9 44.5
09:45 1018 30.06 848 25.04 11.4 52.5 74 6.9 44.4
09:50 1018 30.06 848 25.04 11.5 52.6 72 6.6 43.8
09:55 1019 30.09 848 25.04 11.6 52.8 76 7.5 45.5
10:00 1018 30.06 848 25.04 11.7 53 73 7 44.6
10:05 1018 30.06 848 25.04 11.7 53 73 7 44.6
10:10 1018 30.06 848 25.04 11.6 52.8 69 6 42.9
10:15 1018 30.06 848 25.04 11.3 52.3 69 5.8 42.4
10:20 1018 30.06 848 25.04 11.6 52.8 68 5.9 42.6
10:25 1018 30.06 848 25.04 11.7 53 67 5.8 42.5
10:30 1018 30.06 848 25.04 11.9 53.5 66 5.9 42.7
10:35 1019 30.09 848 25.04 12.1 53.7 64 5.6 42
10:40 1018 30.06 848 25.04 12.4 54.2 65 5.9 42.7
10:45 1018 30.06 848 25.04 12.7 54.9 63 5.9 42.6
10:50 1018 30.06 848 25.04 13.2 55.7 60 5.5 41.9
10:55 1018 30.06 848 25.04 13.3 56 59 5.4 41.8
11:00 1018 30.06 848 25.04 13.3 56 60 5.8 42.5
11:05 1018 30.06 848 25.04 14 57.3 53 4.8 40.6
11:10 1018 30.06 848 25.04 14.4 57.9 51 4.5 40.1
11:15 1018 30.06 848 25.04 14.3 57.8 52 4.7 40.5
11:20 1018 30.06 848 25.04 15 59.1 49 4.5 40
11:25 1018 30.06 848 25.04 14.8 58.6 49 4.4 39.9
11:30 1018 30.06 848 25.04 14.1 57.4 51 4.1 39.3
11:35 1018 30.06 848 25.04 14 57.1 53 4.5 40.1
11:40 1018 30.06 848 25.04 14.6 58.3 53 5.2 41.3
11:45 1018 30.06 848 25.04 14.7 58.4 51 4.8 40.6
11:50 1018 30.06 847 25.01 14.9 58.8 50 4.6 40.3
11:55 1018 30.06 847 25.01 14.9 58.9 47 3.9 39
12:00 1018 30.06 847 25.01 15.7 60.2 46 4.1 39.3
12:05 1018 30.06 847 25.01 15.1 59.2 42 2.3 36.1
12:10 1018 30.06 847 25.01 14.8 58.6 44 2.9 37.2
12:15 1018 30.06 847 25.01 14.3 57.7 48 3.5 38.3
12:20 1018 30.06 847 25.01 14.7 58.4 47 3.6 38.4
12:25 1018 30.06 847 25.01 15.6 60 46 4.2 39.5
12:30 1018 30.06 848 25.04 16.1 60.9 45 4.2 39.6
12:35 1018 30.06 848 25.04 15.6 60.1 46 4.2 39.6
12:40 1018 30.06 848 25.04 14.7 58.4 48 4 39.2
12:45 1018 30.06 848 25.04 14.6 58.2 51 4.5 40.2
12:50 1019 30.09 848 25.04 13.6 56.4 61 6.2 43.1
12:55 1019 30.09 848 25.04 12.5 54.5 65 6.1 43.1
13:00 1019 30.09 848 25.04 12.3 54.1 71 7.1 44.8
13:05 1019 30.09 848 25.04 12.1 53.8 74 7.7 45.9
13:10 1019 30.09 848 25.04 12 53.6 70 6.8 44.2
13:15 1019 30.09 848 25.04 12 53.5 73 7.2 45
13:20 1019 30.09 848 25.04 12 53.6 65 5.7 42.2
13:25 1019 30.09 848 25.04 12 53.6 66 6 42.8
13:30 1019 30.09 848 25.04 12 53.6 67 6.1 43
13:35 1019 30.09 848 25.04 12.4 54.3 63 5.7 42.2
13:40 1019 30.09 848 25.04 12.8 55 59 5 41
13:45 1019 30.09 848 25.04 12.3 54.2 60 4.8 40.6
13:50 1019 30.09 848 25.04 12.4 54.3 58 4.5 40.1
13:55 1019 30.09 848 25.04 12.7 54.9 54 3.6 38.6
14:00 1019 30.09 848 25.04 12.7 54.9 58 4.8 40.7
14:05 1019 30.09 848 25.04 12.7 54.9 60 5.2 41.3
14:10 1019 30.09 848 25.04 12.9 55.3 56 4.5 40.1
14:15 1019 30.09 848 25.04 13.4 56.1 53 4.1 39.4
14:20 1018 30.06 848 25.04 13.5 56.4 53 4.2 39.5
14:25 1019 30.09 848 25.04 14.2 57.6 50 4 39.3
14:30 1018 30.06 848 25.04 14.6 58.2 49 4.2 39.5
14:35 1018 30.06 848 25.04 14.7 58.4 50 4.6 40.2
14:40 1018 30.06 848 25.04 15.1 59.2 49 4.6 40.4
14:45 1018 30.06 848 25.04 16.1 60.9 47 4.8 40.7
14:50 1019 30.09 848 25.04 16.1 60.9 44 3.9 39.1
14:55 1019 30.09 848 25.04 15.8 60.4 53 6.4 43.6
15:00 1019 30.09 848 25.04 13.4 56.1 62 6.3 43.3
15:05 1019 30.09 848 25.04 12.5 54.6 60 5.1 41.2
15:10 1019 30.09 848 25.04 12 53.6 62 5 41.1
15:15 1019 30.09 848 25.04 11.8 53.2 62 4.8 40.7
15:20 1019 30.09 848 25.04 12.5 54.5 60 5 40.9
15:25 1019 30.09 848 25.04 12.7 54.8 60 5.1 41.1
15:30 1019 30.09 848 25.04 12.3 54.2 62 5.4 41.6
15:35 1019 30.09 848 25.04 12.3 54.2 63 5.5 41.8
15:40 1019 30.09 848 25.04 12.1 53.7 59 4.4 40
15:45 1019 30.09 848 25.04 12.1 53.9 59 4.4 39.9
15:50 1019 30.09 848 25.04 12.7 54.9 55 4 39.3
15:55 1019 30.09 848 25.04 13.2 55.7 54 4.3 39.7
16:00 1019 30.09 848 25.04 13.3 56 54 4.2 39.6
16:05 1019 30.09 848 25.04 13.1 55.6 55 4.3 39.7
16:10 1019 30.09 848 25.04 12.8 55.1 55 4.1 39.4
16:15 1019 30.09 848 25.04 12.5 54.6 59 4.9 40.8
16:20 1019 30.09 848 25.04 12.4 54.3 63 5.7 42.2
16:25 1019 30.09 848 25.04 12.3 54.2 67 6.3 43.4
16:30 1019 30.09 848 25.04 12.7 54.8 62 5.6 42
16:35 1019 30.09 848 25.04 13.2 55.8 63 6.4 43.4
16:40 1019 30.09 848 25.04 13.3 56 59 5.5 42
16:45 1019 30.09 848 25.04 13.5 56.3 60 6.1 42.9
16:50 1019 30.09 848 25.04 13.5 56.2 61 6.2 43.2
16:55 1019 30.09 848 25.04 12.9 55.3 61 5.6 42.1
17:00 1019 30.09 848 25.04 12.9 55.2 62 5.9 42.7
17:05 1019 30.09 848 25.04 12.9 55.1 58 4.9 40.9
17:10 1019 30.09 848 25.04 13.1 55.5 59 5.4 41.6
17:15 1019 30.09 848 25.04 13 55.5 58 5.1 41.2
17:20 1019 30.09 848 25.04 13.2 55.8 58 5.1 41.1
17:25 1019 30.09 848 25.04 13.8 56.8 56 5.2 41.4
17:30 1019 30.09 848 25.04 13.8 56.9 54 4.9 40.8
17:35 1019 30.09 848 25.04 14.4 57.9 53 5.1 41.2
17:40 1019 30.09 848 25.04 14.4 57.9 58 6.3 43.3
17:45 1019 30.09 848 25.04 14.2 57.5 59 6.4 43.5
17:50 1019 30.09 848 25.04 13.6 56.4 56 5.1 41.1
17:55 1019 30.09 848 25.04 13.1 55.7 57 4.8 40.7
18:00 1019 30.09 848 25.04 13.1 55.7 60 5.6 42.1
18:05 1019 30.09 848 25.04 13.2 55.7 57 4.9 40.8
18:10 1019 30.09 848 25.04 13.3 55.9 56 4.8 40.7
18:15 1019 30.09 848 25.04 13.5 56.3 55 4.7 40.5
18:20 1019 30.09 848 25.04 13.4 56 61 6.2 43.1
18:25 1019 30.09 849 25.07 12.1 53.7 72 7.1 44.9
18:30 1019 30.09 848 25.04 11.3 52.3 77 7.4 45.2
18:35 1019 30.09 848 25.04 11.1 51.9 77 7.3 45.1
18:40 1019 30.09 848 25.04 11 51.7 74 6.6 43.9
18:45 1019 30.09 848 25.04 10.8 51.5 78 7.2 44.9
18:50 1019 30.09 848 25.04 10.9 51.7 77 7.1 44.8
18:55 1019 30.09 848 25.04 11 51.8 80 7.7 45.8
19:00 1019 30.09 848 25.04 10.9 51.6 78 7.2 45
19:05 1019 30.09 848 25.04 11.3 52.3 70 6.1 42.9
19:10 1019 30.09 848 25.04 11.6 52.8 76 7.5 45.4
19:15 1019 30.09 848 25.04 11.4 52.5 70 6.2 43.2
19:20 1019 30.09 848 25.04 11.5 52.6 73 6.9 44.4
19:25 1019 30.09 848 25.04 11.4 52.4 73 6.7 44
19:30 1019 30.09 848 25.04 11.2 52.2 71 6.2 43.1
19:35 1019 30.09 848 25.04 11.1 52.1 73 6.5 43.6
19:40 1019 30.09 848 25.04 11.2 52.1 71 6.2 43.2
19:45 1019 30.09 849 25.07 11.4 52.4 67 5.5 41.9
19:50 1019 30.09 849 25.07 11.7 53 74 7.1 44.8
19:55 1020 30.12 849 25.07 11.6 52.8 73 6.9 44.5
20:00 1020 30.12 849 25.07 11.5 52.7 73 6.9 44.4
20:05 1020 30.12 849 25.07 11.5 52.6 75 7.1 44.9
20:10 1020 30.12 849 25.07 11.5 52.6 74 7 44.5
20:15 1020 30.12 849 25.07 11.5 52.7 74 7 44.6
20:20 1020 30.12 849 25.07 11.5 52.7 76 7.5 45.4
20:25 1020 30.12 849 25.07 11.3 52.4 74 6.9 44.4
20:30 1020 30.12 849 25.07 11.3 52.4 74 7 44.5
20:35 1020 30.12 849 25.07 11.4 52.4 71 6.3 43.4
20:40 1020 30.12 849 25.07 11.5 52.6 72 6.7 44.1
20:45 1020 30.12 849 25.07 11.4 52.5 75 7.2 44.9
20:50 1020 30.12 849 25.07 11.1 51.9 77 7.1 44.9
20:55 1020 30.12 849 25.07 10.8 51.5 77 7 44.6
21:00 1020 30.12 849 25.07 10.8 51.5 77 6.9 44.4
21:05 1020 30.12 849 25.07 10.9 51.6 77 7.1 44.8
21:10 1020 30.12 849 25.07 11 51.8 76 6.9 44.4
21:15 1020 30.12 849 25.07 11 51.9 78 7.4 45.4
21:20 1020 30.12 849 25.07 10.9 51.6 78 7.3 45.1
21:25 1020 30.12 849 25.07 10.8 51.4 80 7.4 45.3
21:30 1020 30.12 849 25.07 10.6 51 81 7.5 45.5
21:35 1020 30.12 849 25.07 10.4 50.7 82 7.6 45.6
21:40 1020 30.12 849 25.07 10.4 50.6 82 7.5 45.5
21:45 1020 30.12 850 25.1 10.5 50.9 82 7.6 45.6
21:50 1020 30.12 850 25.1 10.5 50.9 82 7.6 45.6
21:55 1020 30.12 850 25.1 10.5 50.8 83 7.7 45.9
22:00 1020 30.12 850 25.1 10.2 50.4 84 7.7 45.9
22:05 1020 30.12 850 25.1 10 50 83 7.3 45.2
22:10 1020 30.12 850 25.1 10.2 50.3 79 6.7 44.1
22:15 1020 30.12 850 25.1 10.7 51.2 76 6.7 44
22:20 1020 30.12 850 25.1 11 51.8 77 7.1 44.7
22:25 1020 30.12 850 25.1 11 51.9 74 6.5 43.7
22:30 1020 30.12 850 25.1 11.1 52 75 6.8 44.3
22:35 1020 30.12 850 25.1 11.1 51.9 76 6.9 44.5
22:40 1020 30.12 850 25.1 10.8 51.5 79 7.4 45.4
22:45 1020 30.12 850 25.1 10.3 50.6 83 7.6 45.7
22:50 1021 30.15 850 25.1 9.9 49.8 84 7.2 45
22:55 1021 30.15 850 25.1 9.6 49.2 84 7 44.7
23:00 1021 30.15 850 25.1 9.5 49.1 84 7 44.7
23:05 1021 30.15 850 25.1 9.5 49.1 84 7 44.7
23:10 1021 30.15 850 25.1 9.5 49.2 84 7 44.7
23:15 1021 30.15 850 25.1 9.5 49.1 84 6.9 44.4
23:20 1021 30.15 850 25.1 9.5 49.1 83 6.7 44.1
23:25 1021 30.15 850 25.1 9.6 49.3 82 6.7 44.1
23:30 1020 30.12 850 25.1 9.6 49.2 82 6.7 44.1
23:35 1020 30.12 850 25.1 9.6 49.2 81 6.5 43.7
23:40 1020 30.12 850 25.1 9.5 49.1 81 6.4 43.5
23:45 1020 30.12 850 25.1 9.6 49.2 81 6.4 43.6
23:50 1020 30.12 850 25.1 9.6 49.3 80 6.3 43.4
23:55 1020 30.12 850 25.1 9.7 49.4 80 6.4 43.5
24:00 1020 30.12 850 25.1 9.7 49.4 81 6.7 44